sensor_id;sensor_type;location;lat;lon;timestamp;P1;durP1;ratioP1;P2;durP2;ratioP2
70322;SDS011;57735;56.264;43.898;2023-05-27T00:02:11;48.90;;;24.42;;
70322;SDS011;57735;56.264;43.898;2023-05-27T00:04:41;49.63;;;24.52;;
70322;SDS011;57735;56.264;43.898;2023-05-27T00:07:12;41.67;;;22.85;;
70322;SDS011;57735;56.264;43.898;2023-05-27T00:09:43;44.00;;;22.67;;
70322;SDS011;57735;56.264;43.898;2023-05-27T00:12:14;46.53;;;24.50;;
70322;SDS011;57735;56.264;43.898;2023-05-27T00:14:45;47.33;;;22.77;;
70322;SDS011;57735;56.264;43.898;2023-05-27T00:17:16;46.08;;;25.20;;
70322;SDS011;57735;56.264;43.898;2023-05-27T00:19:48;51.38;;;24.17;;
70322;SDS011;57735;56.264;43.898;2023-05-27T00:22:19;43.90;;;22.90;;
70322;SDS011;57735;56.264;43.898;2023-05-27T00:24:50;43.30;;;23.40;;
70322;SDS011;57735;56.264;43.898;2023-05-27T00:27:29;44.92;;;21.58;;
70322;SDS011;57735;56.264;43.898;2023-05-27T00:30:00;45.58;;;23.45;;
70322;SDS011;57735;56.264;43.898;2023-05-27T00:32:38;52.70;;;23.60;;
70322;SDS011;57735;56.264;43.898;2023-05-27T00:35:09;42.63;;;21.55;;
70322;SDS011;57735;56.264;43.898;2023-05-27T00:37:40;41.08;;;22.48;;
70322;SDS011;57735;56.264;43.898;2023-05-27T00:40:14;52.15;;;22.50;;
70322;SDS011;57735;56.264;43.898;2023-05-27T00:42:48;44.35;;;22.45;;
70322;SDS011;57735;56.264;43.898;2023-05-27T00:45:19;35.65;;;20.52;;
70322;SDS011;57735;56.264;43.898;2023-05-27T00:47:51;41.03;;;21.45;;
70322;SDS011;57735;56.264;43.898;2023-05-27T00:50:22;40.22;;;20.08;;
70322;SDS011;57735;56.264;43.898;2023-05-27T00:52:55;38.03;;;17.65;;
70322;SDS011;57735;56.264;43.898;2023-05-27T00:55:26;34.55;;;18.17;;
70322;SDS011;57735;56.264;43.898;2023-05-27T00:57:57;31.45;;;17.85;;
70322;SDS011;57735;56.264;43.898;2023-05-27T01:00:32;36.08;;;18.73;;
70322;SDS011;57735;56.264;43.898;2023-05-27T01:03:03;32.45;;;16.88;;
70322;SDS011;57735;56.264;43.898;2023-05-27T01:05:37;33.13;;;17.00;;
70322;SDS011;57735;56.264;43.898;2023-05-27T01:10:59;30.67;;;16.67;;
70322;SDS011;57735;56.264;43.898;2023-05-27T01:13:32;31.20;;;17.38;;
70322;SDS011;57735;56.264;43.898;2023-05-27T01:16:17;25.98;;;16.77;;
70322;SDS011;57735;56.264;43.898;2023-05-27T01:18:48;28.80;;;16.63;;
70322;SDS011;57735;56.264;43.898;2023-05-27T01:21:22;31.40;;;17.05;;
70322;SDS011;57735;56.264;43.898;2023-05-27T01:24:01;29.08;;;16.73;;
70322;SDS011;57735;56.264;43.898;2023-05-27T01:26:33;25.00;;;15.52;;
70322;SDS011;57735;56.264;43.898;2023-05-27T01:29:05;26.02;;;16.25;;
70322;SDS011;57735;56.264;43.898;2023-05-27T01:31:41;28.83;;;16.73;;
70322;SDS011;57735;56.264;43.898;2023-05-27T01:34:18;25.80;;;17.33;;
70322;SDS011;57735;56.264;43.898;2023-05-27T01:36:58;23.45;;;15.30;;
70322;SDS011;57735;56.264;43.898;2023-05-27T01:39:33;24.50;;;14.70;;
70322;SDS011;57735;56.264;43.898;2023-05-27T01:42:04;26.25;;;15.75;;
70322;SDS011;57735;56.264;43.898;2023-05-27T01:44:36;27.45;;;16.00;;
70322;SDS011;57735;56.264;43.898;2023-05-27T01:47:08;27.17;;;16.00;;
70322;SDS011;57735;56.264;43.898;2023-05-27T01:49:39;26.08;;;14.88;;
70322;SDS011;57735;56.264;43.898;2023-05-27T01:52:10;26.98;;;14.88;;
70322;SDS011;57735;56.264;43.898;2023-05-27T01:54:40;27.55;;;15.88;;
70322;SDS011;57735;56.264;43.898;2023-05-27T01:57:11;23.90;;;13.98;;
70322;SDS011;57735;56.264;43.898;2023-05-27T01:59:42;22.27;;;14.02;;
70322;SDS011;57735;56.264;43.898;2023-05-27T02:02:13;24.30;;;15.13;;
70322;SDS011;57735;56.264;43.898;2023-05-27T02:04:44;20.15;;;13.70;;
70322;SDS011;57735;56.264;43.898;2023-05-27T02:07:15;20.48;;;14.40;;
70322;SDS011;57735;56.264;43.898;2023-05-27T02:09:47;21.08;;;13.45;;
70322;SDS011;57735;56.264;43.898;2023-05-27T02:12:20;24.25;;;13.25;;
70322;SDS011;57735;56.264;43.898;2023-05-27T02:14:51;22.45;;;13.68;;
70322;SDS011;57735;56.264;43.898;2023-05-27T02:17:22;18.23;;;11.88;;
70322;SDS011;57735;56.264;43.898;2023-05-27T02:19:54;22.27;;;12.18;;
70322;SDS011;57735;56.264;43.898;2023-05-27T02:22:26;17.92;;;10.98;;
70322;SDS011;57735;56.264;43.898;2023-05-27T02:24:58;17.13;;;11.57;;
70322;SDS011;57735;56.264;43.898;2023-05-27T02:27:29;16.30;;;10.73;;
70322;SDS011;57735;56.264;43.898;2023-05-27T02:30:00;20.33;;;10.90;;
70322;SDS011;57735;56.264;43.898;2023-05-27T02:32:30;17.42;;;11.30;;
70322;SDS011;57735;56.264;43.898;2023-05-27T02:35:01;18.88;;;11.65;;
70322;SDS011;57735;56.264;43.898;2023-05-27T02:37:34;27.45;;;12.85;;
70322;SDS011;57735;56.264;43.898;2023-05-27T02:40:05;25.55;;;14.25;;
70322;SDS011;57735;56.264;43.898;2023-05-27T02:42:38;20.23;;;13.23;;
70322;SDS011;57735;56.264;43.898;2023-05-27T02:45:09;21.70;;;13.18;;
70322;SDS011;57735;56.264;43.898;2023-05-27T02:47:40;25.15;;;13.40;;
70322;SDS011;57735;56.264;43.898;2023-05-27T02:50:11;23.70;;;13.35;;
70322;SDS011;57735;56.264;43.898;2023-05-27T02:52:42;23.40;;;13.85;;
70322;SDS011;57735;56.264;43.898;2023-05-27T02:55:12;26.02;;;13.77;;
70322;SDS011;57735;56.264;43.898;2023-05-27T02:57:45;26.33;;;14.35;;
70322;SDS011;57735;56.264;43.898;2023-05-27T03:00:24;21.20;;;12.65;;
70322;SDS011;57735;56.264;43.898;2023-05-27T03:02:56;22.17;;;14.35;;
70322;SDS011;57735;56.264;43.898;2023-05-27T03:05:27;26.20;;;14.15;;
70322;SDS011;57735;56.264;43.898;2023-05-27T03:07:57;21.55;;;12.82;;
70322;SDS011;57735;56.264;43.898;2023-05-27T03:10:28;21.73;;;13.27;;
70322;SDS011;57735;56.264;43.898;2023-05-27T03:13:02;23.45;;;13.45;;
70322;SDS011;57735;56.264;43.898;2023-05-27T03:15:32;20.88;;;13.07;;
70322;SDS011;57735;56.264;43.898;2023-05-27T03:18:03;20.13;;;13.63;;
70322;SDS011;57735;56.264;43.898;2023-05-27T03:20:34;22.83;;;13.98;;
70322;SDS011;57735;56.264;43.898;2023-05-27T03:23:05;24.25;;;13.02;;
70322;SDS011;57735;56.264;43.898;2023-05-27T03:25:36;20.45;;;14.43;;
70322;SDS011;57735;56.264;43.898;2023-05-27T03:28:07;20.48;;;12.95;;
70322;SDS011;57735;56.264;43.898;2023-05-27T03:30:38;23.35;;;13.80;;
70322;SDS011;57735;56.264;43.898;2023-05-27T03:33:09;22.08;;;13.60;;
70322;SDS011;57735;56.264;43.898;2023-05-27T03:35:43;23.58;;;14.00;;
70322;SDS011;57735;56.264;43.898;2023-05-27T03:38:14;23.00;;;14.25;;
70322;SDS011;57735;56.264;43.898;2023-05-27T03:40:44;21.13;;;13.98;;
70322;SDS011;57735;56.264;43.898;2023-05-27T03:43:23;22.73;;;14.88;;
70322;SDS011;57735;56.264;43.898;2023-05-27T03:45:54;20.90;;;13.95;;
70322;SDS011;57735;56.264;43.898;2023-05-27T03:48:29;23.65;;;15.02;;
70322;SDS011;57735;56.264;43.898;2023-05-27T03:51:03;27.05;;;15.07;;
70322;SDS011;57735;56.264;43.898;2023-05-27T03:53:35;25.77;;;16.33;;
70322;SDS011;57735;56.264;43.898;2023-05-27T03:56:05;26.75;;;15.68;;
70322;SDS011;57735;56.264;43.898;2023-05-27T03:58:39;25.60;;;14.75;;
70322;SDS011;57735;56.264;43.898;2023-05-27T04:01:10;24.25;;;15.80;;
70322;SDS011;57735;56.264;43.898;2023-05-27T04:03:41;21.58;;;14.50;;
70322;SDS011;57735;56.264;43.898;2023-05-27T04:06:12;28.17;;;15.35;;
70322;SDS011;57735;56.264;43.898;2023-05-27T04:08:43;23.27;;;14.23;;
70322;SDS011;57735;56.264;43.898;2023-05-27T04:11:14;22.10;;;13.15;;
70322;SDS011;57735;56.264;43.898;2023-05-27T04:13:47;19.30;;;11.20;;
70322;SDS011;57735;56.264;43.898;2023-05-27T04:16:20;17.67;;;11.18;;
70322;SDS011;57735;56.264;43.898;2023-05-27T04:18:52;19.70;;;11.38;;
70322;SDS011;57735;56.264;43.898;2023-05-27T04:21:26;18.58;;;9.52;;
70322;SDS011;57735;56.264;43.898;2023-05-27T04:23:59;15.30;;;9.45;;
70322;SDS011;57735;56.264;43.898;2023-05-27T04:26:30;20.25;;;9.90;;
70322;SDS011;57735;56.264;43.898;2023-05-27T04:29:03;15.18;;;8.80;;
70322;SDS011;57735;56.264;43.898;2023-05-27T04:31:34;14.93;;;10.48;;
70322;SDS011;57735;56.264;43.898;2023-05-27T04:34:08;16.75;;;10.00;;
70322;SDS011;57735;56.264;43.898;2023-05-27T04:36:38;23.05;;;12.93;;
70322;SDS011;57735;56.264;43.898;2023-05-27T04:39:09;22.83;;;14.10;;
70322;SDS011;57735;56.264;43.898;2023-05-27T04:41:42;19.27;;;13.68;;
70322;SDS011;57735;56.264;43.898;2023-05-27T04:44:15;21.73;;;14.07;;
70322;SDS011;57735;56.264;43.898;2023-05-27T04:46:47;21.70;;;12.02;;
70322;SDS011;57735;56.264;43.898;2023-05-27T04:49:18;17.98;;;12.05;;
70322;SDS011;57735;56.264;43.898;2023-05-27T04:51:49;15.85;;;11.27;;
70322;SDS011;57735;56.264;43.898;2023-05-27T04:54:19;20.75;;;12.43;;
70322;SDS011;57735;56.264;43.898;2023-05-27T04:56:51;15.55;;;11.32;;
70322;SDS011;57735;56.264;43.898;2023-05-27T04:59:25;20.33;;;11.65;;
70322;SDS011;57735;56.264;43.898;2023-05-27T05:02:05;15.52;;;11.63;;
70322;SDS011;57735;56.264;43.898;2023-05-27T05:04:51;16.13;;;10.75;;
70322;SDS011;57735;56.264;43.898;2023-05-27T05:07:22;16.63;;;10.63;;
70322;SDS011;57735;56.264;43.898;2023-05-27T05:09:56;20.15;;;11.18;;
70322;SDS011;57735;56.264;43.898;2023-05-27T05:14:58;17.23;;;10.27;;
70322;SDS011;57735;56.264;43.898;2023-05-27T05:17:34;17.10;;;9.70;;
70322;SDS011;57735;56.264;43.898;2023-05-27T05:20:06;12.85;;;9.77;;
70322;SDS011;57735;56.264;43.898;2023-05-27T05:25:10;12.07;;;8.23;;
70322;SDS011;57735;56.264;43.898;2023-05-27T05:27:41;10.60;;;7.68;;
70322;SDS011;57735;56.264;43.898;2023-05-27T05:30:14;11.95;;;8.00;;
70322;SDS011;57735;56.264;43.898;2023-05-27T05:32:45;13.43;;;8.40;;
70322;SDS011;57735;56.264;43.898;2023-05-27T05:35:16;12.52;;;9.30;;
70322;SDS011;57735;56.264;43.898;2023-05-27T05:37:47;14.75;;;9.60;;
70322;SDS011;57735;56.264;43.898;2023-05-27T05:40:21;14.95;;;8.10;;
70322;SDS011;57735;56.264;43.898;2023-05-27T05:42:53;17.30;;;8.50;;
70322;SDS011;57735;56.264;43.898;2023-05-27T05:45:23;15.38;;;8.02;;
70322;SDS011;57735;56.264;43.898;2023-05-27T05:47:55;13.45;;;7.75;;
70322;SDS011;57735;56.264;43.898;2023-05-27T05:50:44;9.55;;;7.10;;
70322;SDS011;57735;56.264;43.898;2023-05-27T05:53:15;13.45;;;9.00;;
70322;SDS011;57735;56.264;43.898;2023-05-27T05:55:46;14.13;;;8.90;;
70322;SDS011;57735;56.264;43.898;2023-05-27T05:58:17;13.32;;;8.98;;
70322;SDS011;57735;56.264;43.898;2023-05-27T06:00:54;14.02;;;8.73;;
70322;SDS011;57735;56.264;43.898;2023-05-27T06:03:25;12.57;;;8.55;;
70322;SDS011;57735;56.264;43.898;2023-05-27T06:05:55;10.48;;;7.68;;
70322;SDS011;57735;56.264;43.898;2023-05-27T06:08:26;14.90;;;8.30;;
70322;SDS011;57735;56.264;43.898;2023-05-27T06:11:00;12.70;;;7.93;;
70322;SDS011;57735;56.264;43.898;2023-05-27T06:13:34;14.05;;;8.27;;
70322;SDS011;57735;56.264;43.898;2023-05-27T06:16:05;16.05;;;8.65;;
70322;SDS011;57735;56.264;43.898;2023-05-27T06:18:36;14.07;;;9.02;;
70322;SDS011;57735;56.264;43.898;2023-05-27T06:21:09;12.20;;;8.95;;
70322;SDS011;57735;56.264;43.898;2023-05-27T06:23:43;15.30;;;8.50;;
70322;SDS011;57735;56.264;43.898;2023-05-27T06:26:14;10.55;;;8.07;;
70322;SDS011;57735;56.264;43.898;2023-05-27T06:28:45;11.75;;;8.38;;
70322;SDS011;57735;56.264;43.898;2023-05-27T06:31:16;15.68;;;9.35;;
70322;SDS011;57735;56.264;43.898;2023-05-27T06:33:47;13.32;;;9.40;;
70322;SDS011;57735;56.264;43.898;2023-05-27T06:36:18;11.82;;;8.60;;
70322;SDS011;57735;56.264;43.898;2023-05-27T06:38:49;14.15;;;9.60;;
70322;SDS011;57735;56.264;43.898;2023-05-27T06:41:20;13.68;;;9.15;;
70322;SDS011;57735;56.264;43.898;2023-05-27T06:43:50;13.45;;;9.30;;
70322;SDS011;57735;56.264;43.898;2023-05-27T06:46:21;13.35;;;8.77;;
70322;SDS011;57735;56.264;43.898;2023-05-27T06:48:55;17.00;;;9.07;;
70322;SDS011;57735;56.264;43.898;2023-05-27T06:51:25;13.75;;;8.95;;
70322;SDS011;57735;56.264;43.898;2023-05-27T06:53:57;12.55;;;8.40;;
70322;SDS011;57735;56.264;43.898;2023-05-27T06:56:28;13.93;;;9.00;;
70322;SDS011;57735;56.264;43.898;2023-05-27T06:58:59;12.57;;;8.70;;
70322;SDS011;57735;56.264;43.898;2023-05-27T07:01:30;14.68;;;8.77;;
70322;SDS011;57735;56.264;43.898;2023-05-27T07:04:01;11.35;;;8.95;;
70322;SDS011;57735;56.264;43.898;2023-05-27T07:06:32;12.93;;;9.20;;
70322;SDS011;57735;56.264;43.898;2023-05-27T07:09:03;13.65;;;8.57;;
70322;SDS011;57735;56.264;43.898;2023-05-27T07:11:34;14.07;;;8.20;;
70322;SDS011;57735;56.264;43.898;2023-05-27T07:14:05;12.82;;;7.95;;
70322;SDS011;57735;56.264;43.898;2023-05-27T07:16:36;12.93;;;8.48;;
70322;SDS011;57735;56.264;43.898;2023-05-27T07:19:07;12.35;;;8.52;;
70322;SDS011;57735;56.264;43.898;2023-05-27T07:21:40;12.10;;;8.83;;
70322;SDS011;57735;56.264;43.898;2023-05-27T07:24:11;17.95;;;8.43;;
70322;SDS011;57735;56.264;43.898;2023-05-27T07:26:42;12.65;;;8.02;;
70322;SDS011;57735;56.264;43.898;2023-05-27T07:29:13;12.10;;;8.23;;
70322;SDS011;57735;56.264;43.898;2023-05-27T07:31:45;10.50;;;7.53;;
70322;SDS011;57735;56.264;43.898;2023-05-27T07:34:16;13.00;;;8.77;;
70322;SDS011;57735;56.264;43.898;2023-05-27T07:36:47;11.35;;;8.65;;
70322;SDS011;57735;56.264;43.898;2023-05-27T07:39:18;10.63;;;8.07;;
70322;SDS011;57735;56.264;43.898;2023-05-27T07:41:49;10.35;;;7.97;;
70322;SDS011;57735;56.264;43.898;2023-05-27T07:44:20;15.55;;;8.32;;
70322;SDS011;57735;56.264;43.898;2023-05-27T07:46:51;12.55;;;8.02;;
70322;SDS011;57735;56.264;43.898;2023-05-27T07:49:24;11.35;;;8.27;;
70322;SDS011;57735;56.264;43.898;2023-05-27T07:51:55;10.90;;;8.27;;
70322;SDS011;57735;56.264;43.898;2023-05-27T07:54:26;10.68;;;8.20;;
70322;SDS011;57735;56.264;43.898;2023-05-27T07:56:57;16.30;;;8.48;;
70322;SDS011;57735;56.264;43.898;2023-05-27T07:59:28;11.98;;;8.27;;
70322;SDS011;57735;56.264;43.898;2023-05-27T08:02:00;13.85;;;8.75;;
70322;SDS011;57735;56.264;43.898;2023-05-27T08:04:31;11.13;;;8.40;;
70322;SDS011;57735;56.264;43.898;2023-05-27T08:07:02;12.88;;;8.75;;
70322;SDS011;57735;56.264;43.898;2023-05-27T08:09:32;15.15;;;8.30;;
70322;SDS011;57735;56.264;43.898;2023-05-27T08:12:03;11.27;;;8.43;;
70322;SDS011;57735;56.264;43.898;2023-05-27T08:14:38;12.25;;;7.93;;
70322;SDS011;57735;56.264;43.898;2023-05-27T08:17:10;12.32;;;7.38;;
70322;SDS011;57735;56.264;43.898;2023-05-27T08:19:41;11.65;;;7.78;;
70322;SDS011;57735;56.264;43.898;2023-05-27T08:22:12;10.23;;;7.63;;
70322;SDS011;57735;56.264;43.898;2023-05-27T08:24:43;8.93;;;6.57;;
70322;SDS011;57735;56.264;43.898;2023-05-27T08:27:14;10.27;;;8.10;;
70322;SDS011;57735;56.264;43.898;2023-05-27T08:29:47;16.10;;;9.98;;
70322;SDS011;57735;56.264;43.898;2023-05-27T08:32:23;15.25;;;8.95;;
70322;SDS011;57735;56.264;43.898;2023-05-27T08:34:55;9.95;;;7.60;;
70322;SDS011;57735;56.264;43.898;2023-05-27T08:37:28;15.43;;;7.50;;
70322;SDS011;57735;56.264;43.898;2023-05-27T08:39:58;11.25;;;6.57;;
70322;SDS011;57735;56.264;43.898;2023-05-27T08:42:32;9.02;;;6.88;;
70322;SDS011;57735;56.264;43.898;2023-05-27T08:45:03;10.93;;;6.83;;
70322;SDS011;57735;56.264;43.898;2023-05-27T08:47:38;9.98;;;6.97;;
70322;SDS011;57735;56.264;43.898;2023-05-27T08:50:10;11.15;;;6.90;;
70322;SDS011;57735;56.264;43.898;2023-05-27T08:52:44;14.07;;;6.90;;
70322;SDS011;57735;56.264;43.898;2023-05-27T08:55:19;8.98;;;6.50;;
70322;SDS011;57735;56.264;43.898;2023-05-27T08:57:54;9.93;;;6.38;;
70322;SDS011;57735;56.264;43.898;2023-05-27T09:00:26;12.10;;;6.90;;
70322;SDS011;57735;56.264;43.898;2023-05-27T09:02:57;7.43;;;6.65;;
70322;SDS011;57735;56.264;43.898;2023-05-27T09:05:29;11.43;;;6.82;;
70322;SDS011;57735;56.264;43.898;2023-05-27T09:08:00;9.32;;;6.10;;
70322;SDS011;57735;56.264;43.898;2023-05-27T09:10:35;13.48;;;6.60;;
70322;SDS011;57735;56.264;43.898;2023-05-27T09:13:07;9.93;;;6.63;;
70322;SDS011;57735;56.264;43.898;2023-05-27T09:15:40;10.18;;;7.20;;
70322;SDS011;57735;56.264;43.898;2023-05-27T09:18:13;12.05;;;8.32;;
70322;SDS011;57735;56.264;43.898;2023-05-27T09:20:44;12.02;;;8.50;;
70322;SDS011;57735;56.264;43.898;2023-05-27T09:23:18;10.18;;;7.90;;
70322;SDS011;57735;56.264;43.898;2023-05-27T09:25:49;12.85;;;6.93;;
70322;SDS011;57735;56.264;43.898;2023-05-27T09:28:21;10.15;;;6.97;;
70322;SDS011;57735;56.264;43.898;2023-05-27T09:31:00;9.85;;;6.57;;
70322;SDS011;57735;56.264;43.898;2023-05-27T09:33:37;13.23;;;6.88;;
70322;SDS011;57735;56.264;43.898;2023-05-27T09:36:09;9.87;;;6.77;;
70322;SDS011;57735;56.264;43.898;2023-05-27T09:38:40;8.38;;;6.35;;
70322;SDS011;57735;56.264;43.898;2023-05-27T09:41:11;8.05;;;7.00;;
70322;SDS011;57735;56.264;43.898;2023-05-27T09:43:42;9.38;;;6.53;;
70322;SDS011;57735;56.264;43.898;2023-05-27T09:46:24;9.50;;;7.35;;
70322;SDS011;57735;56.264;43.898;2023-05-27T09:48:57;8.25;;;7.03;;
70322;SDS011;57735;56.264;43.898;2023-05-27T09:51:29;12.43;;;6.68;;
70322;SDS011;57735;56.264;43.898;2023-05-27T09:54:02;10.40;;;6.70;;
70322;SDS011;57735;56.264;43.898;2023-05-27T09:56:34;11.77;;;6.90;;
70322;SDS011;57735;56.264;43.898;2023-05-27T09:59:05;8.90;;;6.80;;
70322;SDS011;57735;56.264;43.898;2023-05-27T10:01:37;11.10;;;7.00;;
70322;SDS011;57735;56.264;43.898;2023-05-27T10:04:10;11.43;;;7.07;;
70322;SDS011;57735;56.264;43.898;2023-05-27T10:06:47;7.88;;;6.75;;
70322;SDS011;57735;56.264;43.898;2023-05-27T10:09:18;9.27;;;6.68;;
70322;SDS011;57735;56.264;43.898;2023-05-27T10:11:49;12.85;;;7.28;;
70322;SDS011;57735;56.264;43.898;2023-05-27T10:14:20;10.65;;;7.30;;
70322;SDS011;57735;56.264;43.898;2023-05-27T10:16:52;12.48;;;7.47;;
70322;SDS011;57735;56.264;43.898;2023-05-27T10:19:26;12.10;;;7.55;;
70322;SDS011;57735;56.264;43.898;2023-05-27T10:22:08;11.07;;;7.78;;
70322;SDS011;57735;56.264;43.898;2023-05-27T10:24:45;12.80;;;8.23;;
70322;SDS011;57735;56.264;43.898;2023-05-27T10:27:18;13.02;;;7.10;;
70322;SDS011;57735;56.264;43.898;2023-05-27T10:29:57;13.20;;;7.22;;
70322;SDS011;57735;56.264;43.898;2023-05-27T10:32:29;10.50;;;7.10;;
70322;SDS011;57735;56.264;43.898;2023-05-27T10:35:00;10.30;;;7.18;;
70322;SDS011;57735;56.264;43.898;2023-05-27T10:37:32;9.85;;;7.00;;
70322;SDS011;57735;56.264;43.898;2023-05-27T10:40:04;8.45;;;7.22;;
70322;SDS011;57735;56.264;43.898;2023-05-27T10:42:36;12.93;;;7.38;;
70322;SDS011;57735;56.264;43.898;2023-05-27T10:45:08;9.77;;;7.13;;
70322;SDS011;57735;56.264;43.898;2023-05-27T10:47:45;14.20;;;7.38;;
70322;SDS011;57735;56.264;43.898;2023-05-27T10:50:16;9.93;;;7.00;;
70322;SDS011;57735;56.264;43.898;2023-05-27T10:52:47;10.40;;;7.65;;
70322;SDS011;57735;56.264;43.898;2023-05-27T10:55:22;11.93;;;7.22;;
70322;SDS011;57735;56.264;43.898;2023-05-27T10:57:54;9.68;;;6.80;;
70322;SDS011;57735;56.264;43.898;2023-05-27T11:00:26;9.05;;;6.90;;
70322;SDS011;57735;56.264;43.898;2023-05-27T11:03:00;8.35;;;7.15;;
70322;SDS011;57735;56.264;43.898;2023-05-27T11:05:33;12.57;;;7.45;;
70322;SDS011;57735;56.264;43.898;2023-05-27T11:08:04;9.50;;;6.43;;
70322;SDS011;57735;56.264;43.898;2023-05-27T11:10:43;16.00;;;7.47;;
70322;SDS011;57735;56.264;43.898;2023-05-27T11:13:14;11.68;;;7.70;;
70322;SDS011;57735;56.264;43.898;2023-05-27T11:15:45;10.63;;;7.35;;
70322;SDS011;57735;56.264;43.898;2023-05-27T11:18:16;11.70;;;7.30;;
70322;SDS011;57735;56.264;43.898;2023-05-27T11:20:47;11.82;;;7.47;;
70322;SDS011;57735;56.264;43.898;2023-05-27T11:23:17;15.70;;;7.65;;
70322;SDS011;57735;56.264;43.898;2023-05-27T11:25:48;13.13;;;7.40;;
70322;SDS011;57735;56.264;43.898;2023-05-27T11:28:19;12.52;;;7.50;;
70322;SDS011;57735;56.264;43.898;2023-05-27T11:30:50;13.20;;;7.93;;
70322;SDS011;57735;56.264;43.898;2023-05-27T11:33:29;13.52;;;7.72;;
70322;SDS011;57735;56.264;43.898;2023-05-27T11:36:07;12.43;;;7.57;;
70322;SDS011;57735;56.264;43.898;2023-05-27T11:39:00;10.38;;;7.38;;
70322;SDS011;57735;56.264;43.898;2023-05-27T11:41:32;13.88;;;8.20;;
70322;SDS011;57735;56.264;43.898;2023-05-27T11:44:06;14.38;;;8.98;;
70322;SDS011;57735;56.264;43.898;2023-05-27T11:49:15;12.85;;;7.78;;
70322;SDS011;57735;56.264;43.898;2023-05-27T11:51:50;13.70;;;8.27;;
70322;SDS011;57735;56.264;43.898;2023-05-27T11:54:27;13.77;;;8.27;;
70322;SDS011;57735;56.264;43.898;2023-05-27T11:57:01;10.70;;;8.00;;
70322;SDS011;57735;56.264;43.898;2023-05-27T11:59:33;12.20;;;8.68;;
70322;SDS011;57735;56.264;43.898;2023-05-27T12:02:05;11.20;;;8.13;;
70322;SDS011;57735;56.264;43.898;2023-05-27T12:04:39;11.20;;;7.95;;
70322;SDS011;57735;56.264;43.898;2023-05-27T12:07:10;16.98;;;7.55;;
70322;SDS011;57735;56.264;43.898;2023-05-27T12:09:41;14.02;;;8.80;;
70322;SDS011;57735;56.264;43.898;2023-05-27T12:12:12;13.05;;;8.20;;
70322;SDS011;57735;56.264;43.898;2023-05-27T12:14:43;13.77;;;8.55;;
70322;SDS011;57735;56.264;43.898;2023-05-27T12:17:13;12.75;;;8.32;;
70322;SDS011;57735;56.264;43.898;2023-05-27T12:19:45;12.77;;;8.48;;
70322;SDS011;57735;56.264;43.898;2023-05-27T12:22:17;11.95;;;8.55;;
70322;SDS011;57735;56.264;43.898;2023-05-27T12:24:47;12.88;;;7.68;;
70322;SDS011;57735;56.264;43.898;2023-05-27T12:27:21;12.85;;;8.73;;
70322;SDS011;57735;56.264;43.898;2023-05-27T12:29:52;12.80;;;8.13;;
70322;SDS011;57735;56.264;43.898;2023-05-27T12:32:23;16.50;;;7.68;;
70322;SDS011;57735;56.264;43.898;2023-05-27T12:34:55;12.63;;;8.05;;
70322;SDS011;57735;56.264;43.898;2023-05-27T12:37:26;13.63;;;7.90;;
70322;SDS011;57735;56.264;43.898;2023-05-27T12:40:02;9.32;;;7.60;;
70322;SDS011;57735;56.264;43.898;2023-05-27T12:42:35;15.75;;;9.60;;
70322;SDS011;57735;56.264;43.898;2023-05-27T12:45:06;16.25;;;8.23;;
70322;SDS011;57735;56.264;43.898;2023-05-27T12:47:40;15.77;;;8.20;;
70322;SDS011;57735;56.264;43.898;2023-05-27T12:50:11;8.68;;;7.10;;
70322;SDS011;57735;56.264;43.898;2023-05-27T12:52:46;9.00;;;7.85;;
70322;SDS011;57735;56.264;43.898;2023-05-27T12:55:19;10.02;;;7.38;;
70322;SDS011;57735;56.264;43.898;2023-05-27T12:57:52;10.23;;;8.02;;
70322;SDS011;57735;56.264;43.898;2023-05-27T13:00:23;14.23;;;8.15;;
70322;SDS011;57735;56.264;43.898;2023-05-27T13:02:54;14.90;;;7.60;;
70322;SDS011;57735;56.264;43.898;2023-05-27T13:05:30;10.20;;;7.63;;
70322;SDS011;57735;56.264;43.898;2023-05-27T13:08:02;13.63;;;7.95;;
70322;SDS011;57735;56.264;43.898;2023-05-27T13:10:35;19.52;;;8.60;;
70322;SDS011;57735;56.264;43.898;2023-05-27T13:13:06;11.85;;;7.85;;
70322;SDS011;57735;56.264;43.898;2023-05-27T13:15:37;11.85;;;7.68;;
70322;SDS011;57735;56.264;43.898;2023-05-27T13:18:08;15.57;;;8.25;;
70322;SDS011;57735;56.264;43.898;2023-05-27T13:20:40;15.02;;;8.10;;
70322;SDS011;57735;56.264;43.898;2023-05-27T13:23:11;14.85;;;7.55;;
70322;SDS011;57735;56.264;43.898;2023-05-27T13:25:42;15.32;;;9.10;;
70322;SDS011;57735;56.264;43.898;2023-05-27T13:28:13;16.88;;;9.00;;
70322;SDS011;57735;56.264;43.898;2023-05-27T13:30:44;17.48;;;9.15;;
70322;SDS011;57735;56.264;43.898;2023-05-27T13:33:15;13.77;;;8.65;;
70322;SDS011;57735;56.264;43.898;2023-05-27T13:35:49;14.38;;;9.23;;
70322;SDS011;57735;56.264;43.898;2023-05-27T13:38:23;21.65;;;9.40;;
70322;SDS011;57735;56.264;43.898;2023-05-27T13:40:54;14.32;;;8.90;;
70322;SDS011;57735;56.264;43.898;2023-05-27T13:43:25;12.80;;;8.48;;
70322;SDS011;57735;56.264;43.898;2023-05-27T13:45:56;11.50;;;7.65;;
70322;SDS011;57735;56.264;43.898;2023-05-27T13:48:27;16.15;;;8.10;;
70322;SDS011;57735;56.264;43.898;2023-05-27T13:50:58;11.25;;;7.97;;
70322;SDS011;57735;56.264;43.898;2023-05-27T13:53:29;11.55;;;8.20;;
70322;SDS011;57735;56.264;43.898;2023-05-27T13:56:00;12.23;;;8.77;;
70322;SDS011;57735;56.264;43.898;2023-05-27T13:58:36;13.27;;;8.73;;
70322;SDS011;57735;56.264;43.898;2023-05-27T14:01:13;12.75;;;8.70;;
70322;SDS011;57735;56.264;43.898;2023-05-27T14:03:46;13.80;;;8.35;;
70322;SDS011;57735;56.264;43.898;2023-05-27T14:06:16;12.77;;;7.95;;
70322;SDS011;57735;56.264;43.898;2023-05-27T14:08:50;14.25;;;8.65;;
70322;SDS011;57735;56.264;43.898;2023-05-27T14:11:23;13.40;;;8.20;;
70322;SDS011;57735;56.264;43.898;2023-05-27T14:13:54;18.58;;;10.15;;
70322;SDS011;57735;56.264;43.898;2023-05-27T14:16:26;23.25;;;10.23;;
70322;SDS011;57735;56.264;43.898;2023-05-27T14:18:57;16.42;;;9.90;;
70322;SDS011;57735;56.264;43.898;2023-05-27T14:21:28;19.38;;;10.60;;
70322;SDS011;57735;56.264;43.898;2023-05-27T14:23:58;17.65;;;10.32;;
70322;SDS011;57735;56.264;43.898;2023-05-27T14:26:30;18.48;;;10.77;;
70322;SDS011;57735;56.264;43.898;2023-05-27T14:29:01;23.38;;;11.68;;
70322;SDS011;57735;56.264;43.898;2023-05-27T14:31:31;20.80;;;12.57;;
70322;SDS011;57735;56.264;43.898;2023-05-27T14:34:02;16.95;;;11.73;;
70322;SDS011;57735;56.264;43.898;2023-05-27T14:36:33;17.17;;;11.95;;
70322;SDS011;57735;56.264;43.898;2023-05-27T14:39:05;18.92;;;11.25;;
70322;SDS011;57735;56.264;43.898;2023-05-27T14:41:36;15.73;;;10.82;;
70322;SDS011;57735;56.264;43.898;2023-05-27T14:44:07;19.48;;;12.60;;
70322;SDS011;57735;56.264;43.898;2023-05-27T14:46:38;17.70;;;12.13;;
70322;SDS011;57735;56.264;43.898;2023-05-27T14:49:09;17.95;;;12.25;;
70322;SDS011;57735;56.264;43.898;2023-05-27T14:51:39;19.23;;;11.35;;
70322;SDS011;57735;56.264;43.898;2023-05-27T14:54:10;20.25;;;12.52;;
70322;SDS011;57735;56.264;43.898;2023-05-27T14:56:41;19.50;;;12.68;;
70322;SDS011;57735;56.264;43.898;2023-05-27T14:59:12;22.17;;;13.55;;